Time;durP1;ratioP1;P1;durP2;ratioP2;P2;SDS_P1;SDS_P2;PMS_P1;PMS_P2;Temp;Humidity;BMP_temperature;BMP_pressure;BME280_temperature;BME280_humidity;BME280_pressure;Samples;Min_cycle;Max_cycle;Signal;HPM_P1;HPM_P2
2023/03/13 10:45:36;;;;;;;13.63;3.85;;;19.50;60.70;;;;;;5068668;28;20800;-76
2023/03/13 10:48:11;;;;;;;6.43;2.80;;;19.00;59.30;;;;;;5056597;28;20014;-77
2023/03/13 10:50:42;;;;;;;8.95;3.05;;;18.20;59.70;;;;;;5076829;22;20044;-78
2023/03/13 10:53:22;;;;;;;9.73;2.58;;;17.80;60.70;;;;;;5067799;28;20075;-78
2023/03/13 10:55:50;;;;;;;7.50;3.03;;;17.60;61.40;;;;;;5068285;28;20057;-78
2023/03/13 10:58:22;;;;;;;9.02;2.80;;;17.50;61.90;;;;;;5068526;28;20071;-75
2023/03/13 11:00:49;;;;;;;9.88;2.72;;;17.60;62.10;;;;;;5068558;28;20031;-76
2023/03/13 11:03:33;;;;;;;11.63;3.15;;;18.00;61.80;;;;;;5067256;28;20036;-75
2023/03/13 11:06:02;;;;;;;9.88;2.83;;;18.30;61.50;;;;;;5050508;28;20029;-75
2023/03/13 11:08:34;;;;;;;7.97;2.60;;;18.50;61.30;;;;;;5067335;28;20021;-78
2023/03/13 11:11:02;;;;;;;8.25;2.80;;;18.70;60.50;;;;;;5068447;28;20454;-76
2023/03/13 11:13:41;;;;;;;7.82;3.17;;;18.80;60.50;;;;;;5068252;28;20457;-76
2023/03/13 11:16:13;;;;;;;6.07;2.50;;;19.00;60.80;;;;;;5068043;28;20403;-76
2023/03/13 11:18:42;;;;;;;10.52;2.92;;;19.10;61.00;;;;;;5068214;28;20770;-76
2023/03/13 11:21:18;;;;;;;11.07;3.15;;;19.10;61.50;;;;;;5066847;28;20032;-76
2023/03/13 11:24:00;;;;;;;10.00;3.05;;;19.20;61.60;;;;;;5067917;28;20128;-79
2023/03/13 11:26:46;;;;;;;8.20;2.35;;;19.30;61.50;;;;;;5067883;28;20035;-76
2023/03/13 11:29:46;;;;;;;9.70;3.22;;;19.30;61.70;;;;;;5068025;28;20029;-76
2023/03/13 11:32:41;;;;;;;13.55;2.75;;;19.40;62.80;;;;;;5066826;28;20064;-75
2023/03/13 11:35:19;;;;;;;11.88;3.80;;;19.50;63.40;;;;;;5067852;28;20024;-76
2023/03/13 11:37:46;;;;;;;9.10;3.25;;;19.50;62.20;;;;;;5067629;28;20024;-76
2023/03/13 11:40:40;;;;;;;20.02;4.00;;;19.50;62.20;;;;;;5067748;28;20051;-76
2023/03/13 11:43:46;;;;;;;9.07;3.28;;;19.50;62.10;;;;;;5067867;28;20028;-77
2023/03/13 11:46:35;;;;;;;8.57;3.60;;;19.50;62.10;;;;;;5064927;28;20045;-76
2023/03/13 11:49:28;;;;;;;7.28;2.97;;;19.50;62.00;;;;;;5066365;28;20404;-76
2023/03/13 11:52:05;;;;;;;7.72;3.35;;;19.50;62.00;;;;;;5066042;28;20468;-76
2023/03/13 11:54:46;;;;;;;10.25;3.50;;;19.50;62.00;;;;;;5067473;28;20060;-76
2023/03/13 11:57:28;;;;;;;7.57;3.15;;;19.50;62.00;;;;;;5053513;28;20476;-76
2023/03/13 12:00:14;;;;;;;7.25;3.10;;;19.50;62.20;;;;;;5054222;28;20104;-76
2023/03/13 12:02:55;;;;;;;7.78;2.90;;;19.50;62.00;;;;;;5054042;28;20029;-76
2023/03/13 12:05:23;;;;;;;6.47;3.05;;;19.50;62.20;;;;;;5053983;28;20075;-77
2023/03/13 12:07:55;;;;;;;7.65;3.28;;;19.50;62.10;;;;;;5053978;28;20017;-77
2023/03/13 12:10:29;;;;;;;8.25;3.42;;;19.50;62.20;;;;;;5054025;28;20028;-76
2023/03/13 12:13:13;;;;;;;6.68;2.90;;;19.50;62.00;;;;;;5053963;28;20472;-77
2023/03/13 12:15:55;;;;;;;5.65;2.95;;;19.50;62.10;;;;;;5053765;28;20062;-77
2023/03/13 12:18:29;;;;;;;7.95;3.33;;;19.50;62.30;;;;;;5053891;28;20133;-76
2023/03/13 12:21:03;;;;;;;8.05;3.33;;;19.50;62.10;;;;;;5052636;28;20079;-76
2023/03/13 12:23:49;;;;;;;10.40;3.10;;;19.50;62.20;;;;;;5053774;28;20079;-76
2023/03/13 12:26:18;;;;;;;9.15;3.10;;;19.50;62.20;;;;;;5053029;28;20719;-76
2023/03/13 12:28:54;;;;;;;6.23;2.87;;;19.50;62.20;;;;;;5053806;28;20064;-76
2023/03/13 12:31:38;;;;;;;7.78;3.15;;;19.50;62.30;;;;;;5053598;28;20435;-75
2023/03/13 12:34:26;;;;;;;11.82;3.30;;;19.50;62.10;;;;;;5053560;28;20032;-76
2023/03/13 12:36:56;;;;;;;7.72;3.20;;;19.50;62.20;;;;;;5051964;28;20594;-76
2023/03/13 12:39:46;;;;;;;8.35;3.22;;;19.50;62.20;;;;;;5019131;28;20484;-75
2023/03/13 12:42:30;;;;;;;;;;;19.50;62.30;;;;;;5053793;28;20032;-76
2023/03/13 12:44:58;;;;;;;5.60;2.72;;;19.50;62.40;;;;;;5052045;28;19955;-76
2023/03/13 12:47:33;;;;;;;7.20;3.22;;;19.50;62.20;;;;;;5051772;28;20045;-76
2023/03/13 12:50:11;;;;;;;7.80;3.00;;;19.50;62.20;;;;;;5035819;28;20492;-76
2023/03/13 12:53:15;;;;;;;6.03;2.75;;;19.50;62.30;;;;;;5051619;28;20403;-76
2023/03/13 12:56:15;;;;;;;5.72;3.08;;;19.50;62.30;;;;;;5047165;28;20033;-76
2023/03/13 12:58:54;;;;;;;6.68;2.97;;;19.50;62.30;;;;;;5053253;28;20017;-76
2023/03/13 13:01:23;;;;;;;8.90;3.37;;;19.50;62.20;;;;;;5051827;28;20495;-76
2023/03/13 13:04:11;;;;;;;6.17;3.07;;;19.50;62.20;;;;;;5051638;28;20041;-76
2023/03/13 13:06:49;;;;;;;6.10;2.83;;;19.60;62.30;;;;;;5052260;28;20029;-76
2023/03/13 13:09:27;;;;;;;6.32;3.40;;;19.60;62.40;;;;;;5051573;28;20560;-76
2023/03/13 13:11:59;;;;;;;6.05;2.83;;;19.60;62.20;;;;;;5052979;28;20463;-76
2023/03/13 13:14:25;;;;;;;5.18;3.10;;;19.60;62.30;;;;;;5051924;28;20476;-76
2023/03/13 13:17:12;;;;;;;8.27;3.03;;;19.60;62.30;;;;;;5052612;28;20044;-76
2023/03/13 13:19:40;;;;;;;8.07;3.17;;;19.60;62.30;;;;;;5053377;28;20531;-76
2023/03/13 13:22:32;;;;;;;5.65;3.28;;;19.50;62.30;;;;;;5053844;28;20445;-76
2023/03/13 13:24:59;;;;;;;6.13;2.70;;;19.60;62.30;;;;;;5034963;28;20427;-76
2023/03/13 13:27:31;;;;;;;6.68;3.05;;;19.60;62.40;;;;;;5052459;28;20021;-76
2023/03/13 13:29:58;;;;;;;4.47;2.78;;;19.60;62.40;;;;;;5052911;28;20079;-76
2023/03/13 13:32:35;;;;;;;6.10;3.30;;;19.60;62.40;;;;;;5052469;28;20417;-76
2023/03/13 13:35:18;;;;;;;6.05;3.17;;;19.60;62.40;;;;;;5052846;28;20106;-77
2023/03/13 13:37:44;;;;;;;9.63;3.20;;;19.60;62.40;;;;;;5052402;28;20052;-76
2023/03/13 13:40:22;;;;;;;5.95;3.20;;;19.60;62.40;;;;;;5051205;28;20102;-76
2023/03/13 13:43:05;;;;;;;6.50;3.05;;;19.60;62.30;;;;;;5051271;28;20423;-77
2023/03/13 13:45:32;;;;;;;7.00;3.15;;;19.60;62.40;;;;;;5052384;28;20025;-76
2023/03/13 13:48:38;;;;;;;5.13;2.90;;;19.60;62.50;;;;;;5052093;28;20021;-76
2023/03/13 13:51:10;;;;;;;6.38;3.35;;;19.60;62.40;;;;;;5010029;28;20054;-77
2023/03/13 13:53:45;;;;;;;5.95;3.22;;;19.50;62.30;;;;;;5043226;28;20064;-76
2023/03/13 13:56:39;;;;;;;5.28;2.80;;;19.50;62.30;;;;;;5051726;28;20074;-76
2023/03/13 13:59:20;;;;;;;5.90;3.00;;;19.60;62.40;;;;;;5050644;28;20477;-76
2023/03/13 14:02:09;;;;;;;4.90;3.08;;;19.60;62.40;;;;;;5051856;28;20035;-76
2023/03/13 14:04:40;;;;;;;6.35;3.08;;;19.60;62.40;;;;;;5051931;28;20025;-76
2023/03/13 14:07:15;;;;;;;6.32;3.33;;;19.60;62.50;;;;;;5051614;28;20028;-76
2023/03/13 14:10:03;;;;;;;7.50;3.28;;;19.60;62.30;;;;;;5051912;28;20024;-76
2023/03/13 14:12:35;;;;;;;5.43;3.38;;;19.60;62.40;;;;;;5052016;28;20560;-76
2023/03/13 14:15:22;;;;;;;7.22;3.42;;;19.50;62.30;;;;;;5051799;28;20108;-76
2023/03/13 14:17:55;;;;;;;6.28;3.22;;;19.60;62.40;;;;;;5050808;28;20086;-76
2023/03/13 14:20:34;;;;;;;6.00;3.22;;;19.60;62.50;;;;;;5051475;28;20391;-76
2023/03/13 14:23:03;;;;;;;7.53;3.40;;;19.60;62.50;;;;;;5051645;28;20091;-76
2023/03/13 14:25:45;;;;;;;4.97;2.75;;;19.60;62.40;;;;;;5050074;28;20107;-76
2023/03/13 14:28:28;;;;;;;6.53;3.20;;;19.60;62.40;;;;;;5051611;28;20037;-76
2023/03/13 14:30:56;;;;;;;7.03;3.22;;;19.60;62.40;;;;;;5051500;28;20494;-76
2023/03/13 14:33:25;;;;;;;5.40;3.17;;;19.60;62.40;;;;;;5033752;28;20036;-76
2023/03/13 14:35:51;;;;;;;6.43;3.35;;;19.60;62.30;;;;;;5051174;28;20053;-76
2023/03/13 14:38:29;;;;;;;7.40;3.50;;;19.60;62.40;;;;;;5050099;28;20532;-76
2023/03/13 14:40:55;;;;;;;6.25;3.25;;;19.60;62.40;;;;;;5051688;28;20383;-76
2023/03/13 14:43:31;;;;;;;7.05;3.55;;;19.70;62.40;;;;;;5051149;28;20107;-76
2023/03/13 14:45:58;;;;;;;6.82;3.03;;;19.60;62.40;;;;;;5049742;28;20485;-76
2023/03/13 14:48:33;;;;;;;5.05;3.28;;;19.60;62.40;;;;;;5051311;28;20029;-76
2023/03/13 14:51:24;;;;;;;5.97;3.20;;;19.60;62.40;;;;;;5049754;28;20102;-76
2023/03/13 14:53:59;;;;;;;5.45;3.10;;;19.60;62.40;;;;;;5050326;28;20051;-76
2023/03/13 14:56:36;;;;;;;4.03;2.55;;;19.60;62.30;;;;;;5050897;28;20083;-76
2023/03/13 14:59:16;;;;;;;6.10;3.70;;;19.60;62.40;;;;;;5051235;28;20115;-76
2023/03/13 15:01:42;;;;;;;5.93;3.00;;;19.60;62.40;;;;;;5051187;28;20032;-76
2023/03/13 15:04:08;;;;;;;8.80;3.35;;;19.60;62.40;;;;;;5033564;28;20499;-76
2023/03/13 15:06:34;;;;;;;6.35;3.45;;;19.60;62.40;;;;;;5050824;28;20025;-76
2023/03/13 15:09:20;;;;;;;5.25;3.08;;;19.60;62.30;;;;;;5051110;28;20029;-77
2023/03/13 15:11:56;;;;;;;5.28;3.08;;;19.60;62.40;;;;;;5049808;28;20021;-77
2023/03/13 15:14:34;;;;;;;4.95;3.00;;;19.60;63.00;;;;;;5051102;28;20115;-76
2023/03/13 15:17:12;;;;;;;7.07;3.80;;;19.60;62.40;;;;;;5032866;28;20037;-76
2023/03/13 15:19:38;;;;;;;7.20;3.28;;;19.60;62.90;;;;;;5051213;28;20104;-76
2023/03/13 15:22:04;;;;;;;4.88;2.72;;;19.60;62.40;;;;;;5050988;28;20154;-76
2023/03/13 15:24:29;;;;;;;7.43;3.72;;;19.60;62.40;;;;;;5050942;28;20025;-76
2023/03/13 15:26:55;;;;;;;5.55;3.42;;;19.60;62.30;;;;;;5050805;28;20025;-76
2023/03/13 15:29:21;;;;;;;5.68;3.40;;;19.60;62.40;;;;;;5050949;28;20025;-76
2023/03/13 15:31:47;;;;;;;7.22;3.50;;;19.60;62.40;;;;;;5053450;28;20029;-76
2023/03/13 15:34:15;;;;;;;4.72;2.90;;;19.60;62.30;;;;;;5054679;28;20029;-76
2023/03/13 15:36:41;;;;;;;5.80;3.40;;;19.70;62.40;;;;;;5054280;28;20396;-76
2023/03/13 15:39:21;;;;;;;5.15;3.13;;;19.60;62.30;;;;;;5053327;28;20530;-76
2023/03/13 15:41:47;;;;;;;6.13;3.55;;;19.70;62.30;;;;;;5036874;28;20035;-76
2023/03/13 15:44:13;;;;;;;6.22;3.15;;;19.70;62.40;;;;;;5054209;28;20400;-76
2023/03/13 15:46:39;;;;;;;4.90;3.00;;;19.70;62.30;;;;;;5054405;28;20299;-76
2023/03/13 15:49:10;;;;;;;7.60;3.42;;;19.70;62.30;;;;;;5054408;28;20435;-76
2023/03/13 15:51:39;;;;;;;5.40;3.33;;;19.60;62.40;;;;;;5052975;28;20459;-76
2023/03/13 15:54:04;;;;;;;5.75;3.42;;;19.70;62.40;;;;;;5054452;28;20025;-76
2023/03/13 15:56:35;;;;;;;6.40;3.58;;;19.70;62.30;;;;;;5052698;28;20429;-76
2023/03/13 15:59:01;;;;;;;4.93;3.20;;;19.60;62.30;;;;;;5054137;28;20083;-76
2023/03/13 16:01:27;;;;;;;6.57;3.25;;;19.70;62.30;;;;;;5036432;28;20036;-76
2023/03/13 16:03:53;;;;;;;5.45;3.00;;;19.70;62.30;;;;;;5054405;28;20392;-76
2023/03/13 16:06:29;;;;;;;6.78;3.40;;;19.70;62.30;;;;;;5053941;28;20026;-76
2023/03/13 16:08:56;;;;;;;5.47;3.42;;;19.70;62.30;;;;;;5054115;28;20025;-76
2023/03/13 16:11:23;;;;;;;6.13;3.47;;;19.60;62.30;;;;;;5053961;28;20484;-76
2023/03/13 16:13:49;;;;;;;5.75;3.33;;;19.60;62.40;;;;;;5052911;28;20112;-76
2023/03/13 16:16:29;;;;;;;7.25;3.75;;;19.70;62.40;;;;;;5035759;28;20580;-76
2023/03/13 16:18:57;;;;;;;6.90;3.88;;;19.70;62.40;;;;;;5053901;28;20029;-76
2023/03/13 16:21:31;;;;;;;5.75;3.33;;;19.60;62.40;;;;;;5053736;28;20377;-76
2023/03/13 16:23:57;;;;;;;5.80;3.25;;;19.70;62.50;;;;;;5053742;28;20025;-76
2023/03/13 16:26:29;;;;;;;5.47;3.30;;;19.70;62.40;;;;;;5052199;28;20021;-76
2023/03/13 16:28:55;;;;;;;5.03;3.13;;;19.70;62.50;;;;;;5052487;28;20029;-76
2023/03/13 16:31:29;;;;;;;6.35;3.72;;;19.70;62.40;;;;;;5069269;28;20389;-76
2023/03/13 16:33:55;;;;;;;6.35;3.42;;;19.70;62.40;;;;;;5053607;28;20040;-76
2023/03/13 16:36:24;;;;;;;6.05;3.65;;;19.70;62.50;;;;;;5053061;28;20488;-76
2023/03/13 16:38:51;;;;;;;5.45;3.35;;;19.70;62.30;;;;;;5053550;28;20029;-76
2023/03/13 16:41:20;;;;;;;6.05;3.60;;;19.70;62.40;;;;;;5053271;28;20027;-76
2023/03/13 16:43:46;;;;;;;6.40;3.73;;;19.70;62.40;;;;;;5053232;28;20032;-76
2023/03/13 16:46:18;;;;;;;6.63;3.72;;;19.70;62.30;;;;;;5051798;28;20040;-76
2023/03/13 16:48:45;;;;;;;6.85;3.50;;;19.70;62.30;;;;;;5052178;28;20036;-76
2023/03/13 16:51:21;;;;;;;5.60;3.50;;;19.70;62.30;;;;;;5062882;22;20049;-72
2023/03/13 16:53:49;;;;;;;5.47;3.20;;;19.70;62.30;;;;;;4992887;28;20042;-72
2023/03/13 16:56:24;;;;;;;6.25;3.67;;;19.70;62.40;;;;;;5032500;28;20396;-75
2023/03/13 16:58:52;;;;;;;5.47;3.30;;;19.70;62.30;;;;;;5015186;28;20033;-74
2023/03/13 17:01:18;;;;;;;6.43;3.72;;;19.70;62.30;;;;;;5032877;28;20103;-74
2023/03/13 17:03:44;;;;;;;6.70;3.38;;;19.70;62.30;;;;;;5033125;28;20025;-74
2023/03/13 17:06:28;;;;;;;6.57;3.63;;;19.70;62.30;;;;;;4999801;28;20103;-74
2023/03/13 17:08:55;;;;;;;6.68;3.67;;;19.70;62.20;;;;;;5033153;28;20385;-74
2023/03/13 17:11:22;;;;;;;7.00;3.55;;;19.70;62.30;;;;;;5015524;28;20286;-74
2023/03/13 17:13:49;;;;;;;5.93;3.60;;;19.80;62.30;;;;;;5032781;28;20540;-74
2023/03/13 17:16:21;;;;;;;5.40;3.28;;;19.70;62.20;;;;;;5032668;28;20033;-74
2023/03/13 17:18:50;;;;;;;7.57;4.00;;;19.70;62.30;;;;;;5032993;28;20382;-74
2023/03/13 17:21:22;;;;;;;7.38;3.55;;;19.80;62.30;;;;;;5032712;28;20025;-74
2023/03/13 17:23:48;;;;;;;5.72;3.58;;;19.70;62.20;;;;;;5032693;28;20044;-74
2023/03/13 17:26:19;;;;;;;6.45;4.10;;;19.70;62.20;;;;;;5032636;28;20036;-74
2023/03/13 17:28:46;;;;;;;7.10;4.00;;;19.80;62.30;;;;;;5032335;28;20044;-74
2023/03/13 17:31:12;;;;;;;6.68;3.72;;;19.80;62.40;;;;;;5015185;28;20060;-74
2023/03/13 17:33:39;;;;;;;6.03;3.58;;;19.80;62.40;;;;;;5014683;28;20032;-73
2023/03/13 17:36:28;;;;;;;6.78;3.65;;;19.80;62.30;;;;;;5014741;28;20037;-72
2023/03/13 17:38:57;;;;;;;7.13;3.20;;;19.80;62.30;;;;;;5007313;28;20036;-72
2023/03/13 17:41:28;;;;;;;7.03;3.78;;;19.80;62.30;;;;;;5032281;28;20447;-72
2023/03/13 17:43:55;;;;;;;8.68;4.03;;;19.80;62.30;;;;;;5032307;28;20025;-72
2023/03/13 17:46:33;;;;;;;5.57;3.45;;;19.80;62.30;;;;;;5032170;28;20033;-72
2023/03/13 17:48:59;;;;;;;7.10;3.72;;;19.80;62.30;;;;;;5032136;28;20033;-73
2023/03/13 17:51:28;;;;;;;6.40;3.80;;;19.80;62.40;;;;;;5032065;28;20029;-73
2023/03/13 17:53:56;;;;;;;6.97;4.07;;;19.80;62.40;;;;;;5031718;28;20286;-73
2023/03/13 17:56:31;;;;;;;8.25;4.32;;;19.80;62.30;;;;;;5014364;28;20732;-72
2023/03/13 17:58:59;;;;;;;7.50;4.00;;;19.80;62.30;;;;;;5032063;28;20034;-73
2023/03/13 18:01:27;;;;;;;7.72;4.00;;;19.80;62.30;;;;;;5031946;28;20033;-73
2023/03/13 18:03:53;;;;;;;7.78;4.00;;;19.70;62.30;;;;;;5031816;28;20044;-73
2023/03/13 18:06:28;;;;;;;8.57;4.13;;;19.70;62.30;;;;;;4994137;28;20052;-73
2023/03/13 18:08:56;;;;;;;8.32;4.10;;;19.70;62.30;;;;;;5012399;28;20076;-73
2023/03/13 18:11:24;;;;;;;9.38;3.90;;;19.80;62.30;;;;;;5016731;28;20032;-73
2023/03/13 18:13:50;;;;;;;7.35;4.10;;;19.70;62.20;;;;;;5005529;28;20085;-73
2023/03/13 18:16:29;;;;;;;8.50;4.07;;;19.80;62.30;;;;;;5001464;28;20493;-73
2023/03/13 18:18:55;;;;;;;6.43;3.88;;;19.70;62.20;;;;;;5016136;28;20477;-73
2023/03/13 18:21:22;;;;;;;6.32;3.95;;;19.70;62.20;;;;;;5015791;28;20394;-73
2023/03/13 18:23:49;;;;;;;8.13;4.30;;;19.80;62.30;;;;;;5011889;28;20060;-73
2023/03/13 18:26:35;;;;;;;8.65;4.65;;;19.70;62.10;;;;;;5011643;28;20026;-74
2023/03/13 18:29:05;;;;;;;6.80;4.05;;;19.70;62.20;;;;;;5011990;28;20085;-74
2023/03/13 18:31:35;;;;;;;8.45;4.32;;;19.70;62.20;;;;;;5011815;28;20018;-74
2023/03/13 18:34:03;;;;;;;7.47;4.20;;;19.70;62.20;;;;;;4994520;28;20033;-73
2023/03/13 18:36:30;;;;;;;7.03;4.40;;;19.70;62.20;;;;;;4993852;28;20556;-73
2023/03/13 18:38:56;;;;;;;10.15;4.75;;;19.70;62.20;;;;;;4994317;28;20041;-74
2023/03/13 18:41:22;;;;;;;10.40;4.90;;;19.70;62.20;;;;;;5011608;28;20030;-73
2023/03/13 18:43:49;;;;;;;8.07;4.45;;;19.70;62.20;;;;;;4994228;28;20132;-73
2023/03/13 18:46:28;;;;;;;9.00;4.97;;;19.70;62.20;;;;;;5011447;28;20105;-73
2023/03/13 18:48:54;;;;;;;6.88;4.28;;;19.70;62.20;;;;;;5011809;28;20029;-74
2023/03/13 18:51:23;;;;;;;8.48;4.72;;;19.70;62.20;;;;;;5011539;28;20026;-74
2023/03/13 18:53:50;;;;;;;7.07;4.35;;;19.70;62.20;;;;;;5011561;28;20036;-73
2023/03/13 18:56:23;;;;;;;9.40;4.70;;;19.70;62.20;;;;;;5011502;28;20068;-74
2023/03/13 18:58:51;;;;;;;8.00;5.03;;;19.70;62.20;;;;;;5011689;28;20057;-73
2023/03/13 19:01:19;;;;;;;10.02;4.88;;;19.70;62.10;;;;;;4993955;28;20030;-74
2023/03/13 19:03:46;;;;;;;8.45;4.85;;;19.70;62.10;;;;;;5011474;28;20092;-74
2023/03/13 19:06:26;;;;;;;7.50;4.47;;;19.80;62.20;;;;;;5013059;28;20076;-73
2023/03/13 19:09:05;;;;;;;7.90;4.55;;;19.70;62.10;;;;;;5015590;28;20084;-73
2023/03/13 19:11:31;;;;;;;8.77;4.47;;;19.80;62.20;;;;;;5015472;28;20075;-74
2023/03/13 19:13:58;;;;;;;7.88;4.78;;;19.70;62.10;;;;;;5015426;28;20026;-74
2023/03/13 19:16:28;;;;;;;8.82;4.70;;;19.70;62.10;;;;;;5015141;28;20034;-73
2023/03/13 19:18:55;;;;;;;8.30;4.80;;;19.70;62.10;;;;;;4997976;28;20054;-73
2023/03/13 19:21:24;;;;;;;8.05;4.93;;;19.70;62.10;;;;;;5015335;28;20032;-73
2023/03/13 19:23:50;;;;;;;7.70;4.70;;;19.70;62.10;;;;;;5015178;28;20517;-73
2023/03/13 19:26:25;;;;;;;8.82;5.10;;;19.70;62.10;;;;;;4997326;28;20069;-74
2023/03/13 19:28:51;;;;;;;7.93;4.72;;;19.70;62.10;;;;;;5015214;28;20119;-74
2023/03/13 19:31:17;;;;;;;7.75;4.72;;;19.70;62.20;;;;;;5015578;28;20053;-74
2023/03/13 19:33:42;;;;;;;7.68;4.30;;;19.70;62.10;;;;;;5015061;28;20022;-73
2023/03/13 19:36:16;;;;;;;7.50;4.78;;;19.80;62.30;;;;;;5014747;28;20541;-74
2023/03/13 19:38:43;;;;;;;6.88;4.40;;;19.70;62.20;;;;;;4997424;28;20034;-73
2023/03/13 19:41:10;;;;;;;8.55;4.82;;;19.70;62.10;;;;;;4997455;28;20026;-74
2023/03/13 19:43:36;;;;;;;7.75;4.53;;;19.80;62.30;;;;;;5014812;28;20044;-73
2023/03/13 19:46:26;;;;;;;9.88;4.90;;;19.80;62.20;;;;;;4981033;28;20203;-73
2023/03/13 19:48:54;;;;;;;8.43;4.88;;;19.70;62.10;;;;;;5014835;28;20056;-74
2023/03/13 19:51:20;;;;;;;6.57;4.45;;;19.70;62.20;;;;;;5014607;28;20440;-74
2023/03/13 19:53:45;;;;;;;7.97;4.72;;;19.70;62.20;;;;;;5014602;28;20088;-74
2023/03/13 19:56:18;;;;;;;7.32;4.35;;;19.70;62.20;;;;;;5014324;28;20505;-74
2023/03/13 19:58:46;;;;;;;8.07;4.70;;;19.70;62.20;;;;;;4997068;28;20115;-74
2023/03/13 20:01:11;;;;;;;8.70;4.75;;;19.70;62.20;;;;;;5014487;28;20476;-73
2023/03/13 20:03:37;;;;;;;9.18;4.60;;;19.70;62.20;;;;;;4996906;28;20022;-73
2023/03/13 20:06:03;;;;;;;8.98;4.82;;;19.70;62.20;;;;;;5014270;28;20032;-73
2023/03/13 20:08:29;;;;;;;6.97;4.32;;;19.70;62.20;;;;;;5013223;28;20053;-73
2023/03/13 20:10:55;;;;;;;8.02;4.60;;;19.80;62.20;;;;;;5014190;28;20034;-74
2023/03/13 20:13:21;;;;;;;7.88;4.90;;;19.80;62.20;;;;;;5014254;28;20028;-74
2023/03/13 20:15:46;;;;;;;8.80;5.28;;;19.80;62.10;;;;;;4996261;28;20026;-75
2023/03/13 20:18:12;;;;;;;8.45;4.72;;;19.80;62.10;;;;;;5013839;28;20152;-74
2023/03/13 20:20:38;;;;;;;8.10;4.82;;;19.80;62.10;;;;;;5014062;28;20072;-73
2023/03/13 20:23:04;;;;;;;7.72;4.45;;;19.80;62.10;;;;;;5014048;28;20025;-74
2023/03/13 20:25:30;;;;;;;8.52;4.93;;;19.80;62.10;;;;;;4996268;28;20040;-73
2023/03/13 20:27:55;;;;;;;7.85;4.70;;;19.70;62.00;;;;;;5014087;28;20080;-74
2023/03/13 20:30:22;;;;;;;8.93;5.22;;;19.70;62.10;;;;;;4996690;28;20029;-74
2023/03/13 20:32:48;;;;;;;6.50;4.28;;;19.70;62.10;;;;;;4996257;28;20022;-74
2023/03/13 20:35:14;;;;;;;6.22;4.55;;;19.80;62.10;;;;;;4996308;28;20079;-74
2023/03/13 20:37:40;;;;;;;7.47;4.65;;;19.70;62.20;;;;;;5012206;28;20101;-74
2023/03/13 20:40:09;;;;;;;8.35;5.03;;;19.70;62.20;;;;;;5013759;28;20033;-74
2023/03/13 20:42:37;;;;;;;8.27;4.93;;;19.70;62.20;;;;;;5013657;28;20037;-74
2023/03/13 20:45:07;;;;;;;8.30;5.10;;;19.70;62.20;;;;;;4996133;28;20474;-74
2023/03/13 20:47:33;;;;;;;7.18;4.47;;;19.70;62.20;;;;;;5013369;28;20112;-74
2023/03/13 20:49:58;;;;;;;6.82;4.40;;;19.70;62.20;;;;;;5013643;28;20050;-73
2023/03/13 20:52:24;;;;;;;11.30;5.10;;;19.70;62.20;;;;;;4979761;28;20498;-74
2023/03/13 20:54:50;;;;;;;7.65;5.18;;;19.70;62.10;;;;;;5013556;28;20393;-74
2023/03/13 20:57:18;;;;;;;9.07;4.72;;;19.70;62.20;;;;;;5013201;28;20378;-74
2023/03/13 20:59:44;;;;;;;8.85;4.63;;;19.80;62.20;;;;;;5013426;28;20036;-74
2023/03/13 21:02:10;;;;;;;8.85;4.90;;;19.70;62.20;;;;;;5013338;28;20028;-74
2023/03/13 21:04:36;;;;;;;7.07;4.35;;;19.70;62.20;;;;;;5013228;28;20041;-73
2023/03/13 21:07:03;;;;;;;8.10;4.93;;;19.70;62.10;;;;;;4995546;28;20030;-73
2023/03/13 21:09:31;;;;;;;7.05;4.68;;;19.70;62.30;;;;;;5013538;28;20526;-73
2023/03/13 21:11:57;;;;;;;7.82;4.95;;;19.80;62.30;;;;;;5013103;28;20057;-73
2023/03/13 21:14:23;;;;;;;7.80;4.65;;;19.70;62.20;;;;;;5013233;28;20056;-73
2023/03/13 21:16:48;;;;;;;7.65;4.60;;;19.80;62.20;;;;;;4995331;28;20033;-73
2023/03/13 21:19:14;;;;;;;7.93;4.80;;;19.80;62.20;;;;;;5013103;28;20541;-72
2023/03/13 21:21:40;;;;;;;8.38;4.72;;;19.80;62.20;;;;;;5012730;28;20033;-73
2023/03/13 21:24:06;;;;;;;8.45;5.05;;;19.80;62.20;;;;;;5012983;28;20037;-73
2023/03/13 21:26:32;;;;;;;7.93;4.82;;;19.80;62.20;;;;;;5012615;28;20030;-73
2023/03/13 21:28:58;;;;;;;8.20;4.90;;;19.80;62.20;;;;;;5012117;28;20018;-76
2023/03/13 21:31:24;;;;;;;7.70;5.07;;;19.80;62.20;;;;;;5012769;28;20061;-73
2023/03/13 21:33:50;;;;;;;8.18;4.97;;;19.80;62.20;;;;;;5013205;28;20029;-73
2023/03/13 21:36:22;;;;;;;7.25;4.47;;;19.80;62.20;;;;;;5012338;28;20497;-73
2023/03/13 21:38:49;;;;;;;6.82;4.47;;;19.80;62.20;;;;;;5012703;28;20029;-74
2023/03/13 21:41:17;;;;;;;8.73;4.88;;;19.80;62.20;;;;;;5012590;28;20065;-75
2023/03/13 21:43:44;;;;;;;8.35;4.70;;;19.80;62.20;;;;;;4979276;28;20033;-73
2023/03/13 21:46:11;;;;;;;7.47;4.57;;;19.80;62.20;;;;;;5012257;28;20029;-73
2023/03/13 21:48:39;;;;;;;7.57;4.60;;;19.80;62.20;;;;;;4995016;28;20029;-74
2023/03/13 21:51:05;;;;;;;6.93;4.55;;;19.70;62.10;;;;;;5012334;28;20153;-73
2023/03/13 21:53:32;;;;;;;7.22;4.28;;;19.70;62.20;;;;;;5012550;28;20395;-73
2023/03/13 21:55:58;;;;;;;7.60;4.47;;;19.80;62.20;;;;;;5012058;28;20489;-73
2023/03/13 21:58:23;;;;;;;6.63;4.30;;;19.70;62.10;;;;;;4978656;28;20128;-73
2023/03/13 22:00:55;;;;;;;7.18;4.35;;;19.70;62.10;;;;;;5012233;28;20030;-73
2023/03/13 22:03:22;;;;;;;7.15;4.55;;;19.80;62.20;;;;;;5012277;28;20512;-73
2023/03/13 22:05:48;;;;;;;7.28;4.70;;;19.80;62.20;;;;;;5011828;28;20026;-73
2023/03/13 22:08:14;;;;;;;7.35;4.70;;;19.70;62.10;;;;;;4994869;28;20026;-73
2023/03/13 22:10:47;;;;;;;7.30;4.50;;;19.70;62.10;;;;;;5012084;28;20033;-73
2023/03/13 22:13:13;;;;;;;6.53;4.53;;;19.70;62.10;;;;;;5012244;28;20034;-74
2023/03/13 22:15:42;;;;;;;6.93;4.40;;;19.70;62.10;;;;;;5011830;28;20029;-74
2023/03/13 22:18:08;;;;;;;6.35;4.13;;;19.70;62.10;;;;;;5011931;28;20026;-74
2023/03/13 22:20:34;;;;;;;5.65;4.15;;;19.70;62.20;;;;;;5011876;28;20037;-74
2023/03/13 22:22:59;;;;;;;8.40;4.82;;;19.70;62.20;;;;;;5011864;28;20117;-74
2023/03/13 22:25:25;;;;;;;6.65;4.50;;;19.70;62.10;;;;;;5011724;28;20137;-75
2023/03/13 22:27:51;;;;;;;7.25;4.47;;;19.70;62.00;;;;;;5011645;28;20029;-74
2023/03/13 22:30:17;;;;;;;6.93;4.57;;;19.80;62.00;;;;;;5011825;28;20021;-74
2023/03/13 22:32:42;;;;;;;8.45;4.88;;;19.70;62.00;;;;;;5011714;28;20030;-74
2023/03/13 22:35:08;;;;;;;7.10;4.80;;;19.80;62.10;;;;;;4994323;28;20026;-75
2023/03/13 22:37:34;;;;;;;7.03;4.50;;;19.80;62.00;;;;;;5011406;28;20165;-74
2023/03/13 22:40:00;;;;;;;7.53;4.55;;;19.70;62.00;;;;;;5011626;28;20105;-73
2023/03/13 22:42:26;;;;;;;7.65;4.38;;;19.70;61.90;;;;;;5011654;28;20473;-73
2023/03/13 22:44:52;;;;;;;6.95;4.57;;;19.70;61.90;;;;;;4994095;28;20030;-72
2023/03/13 22:47:18;;;;;;;6.78;4.07;;;19.70;62.00;;;;;;5011523;28;20030;-73
2023/03/13 22:49:43;;;;;;;7.25;4.40;;;19.80;62.10;;;;;;5011651;28;20065;-72
2023/03/13 22:52:09;;;;;;;7.07;4.82;;;19.70;61.90;;;;;;5033299;23;20049;-76
2023/03/13 22:54:35;;;;;;;7.07;4.57;;;19.70;62.10;;;;;;5025981;28;20021;-76
2023/03/13 22:57:01;;;;;;;7.35;4.53;;;19.70;62.00;;;;;;5050568;28;20041;-76
2023/03/13 22:59:26;;;;;;;8.82;4.38;;;19.70;62.00;;;;;;5051231;28;20021;-77
2023/03/13 23:01:52;;;;;;;7.68;4.15;;;19.70;62.00;;;;;;5051152;28;20055;-76
2023/03/13 23:04:18;;;;;;;6.55;4.15;;;19.70;62.10;;;;;;5051089;28;20028;-76
2023/03/13 23:06:43;;;;;;;7.65;4.60;;;19.70;62.00;;;;;;5050913;28;20021;-76
2023/03/13 23:09:12;;;;;;;5.70;4.15;;;19.70;62.00;;;;;;5051167;28;20037;-76
2023/03/13 23:11:38;;;;;;;7.20;4.47;;;19.70;62.10;;;;;;5033304;28;20033;-76
2023/03/13 23:14:04;;;;;;;6.53;4.25;;;19.70;62.10;;;;;;5051079;28;20033;-76
2023/03/13 23:16:30;;;;;;;8.95;4.72;;;19.70;62.10;;;;;;5033140;28;20036;-77
2023/03/13 23:18:56;;;;;;;7.55;4.65;;;19.70;62.00;;;;;;5050936;28;20036;-76
2023/03/13 23:21:22;;;;;;;6.13;4.22;;;19.70;62.10;;;;;;5051057;28;20063;-76
2023/03/13 23:23:48;;;;;;;7.38;4.65;;;19.70;62.00;;;;;;5050956;28;20048;-76
2023/03/13 23:26:14;;;;;;;7.82;4.65;;;19.70;62.00;;;;;;5050709;28;20458;-76
2023/03/13 23:28:40;;;;;;;6.07;4.10;;;19.70;62.00;;;;;;5050642;28;20017;-77
2023/03/13 23:31:15;;;;;;;7.35;4.45;;;19.70;62.10;;;;;;5050438;28;20060;-76
2023/03/13 23:33:41;;;;;;;6.97;4.47;;;19.70;62.00;;;;;;5049971;28;20044;-77
2023/03/13 23:36:10;;;;;;;6.13;4.10;;;19.70;62.00;;;;;;5050576;28;20029;-76
2023/03/13 23:38:36;;;;;;;7.53;4.33;;;19.70;61.90;;;;;;5048185;28;20036;-77
2023/03/13 23:41:07;;;;;;;7.00;4.28;;;19.80;62.00;;;;;;5049341;28;20275;-76
2023/03/13 23:43:33;;;;;;;5.75;4.25;;;19.70;61.90;;;;;;5049878;28;20044;-76
2023/03/13 23:45:59;;;;;;;7.07;4.15;;;19.70;62.00;;;;;;5049388;28;20029;-76
2023/03/13 23:48:25;;;;;;;5.25;3.80;;;19.70;61.90;;;;;;5048534;28;20035;-76
2023/03/13 23:50:51;;;;;;;5.43;3.83;;;19.70;61.80;;;;;;5031983;28;20024;-76